Time;durP1;ratioP1;P1;durP2;ratioP2;P2;SDS_P1;SDS_P2;PMS_P1;PMS_P2;Temp;Humidity;BMP_temperature;BMP_pressure;BME280_temperature;BME280_humidity;BME280_pressure;Samples;Min_cycle;Max_cycle;Signal;HPM_P1;HPM_P2
2022/02/16 00:01:50;;;;;;;6.10;1.40;;;;;;;3.64;84.73;152300.22;5088364;28;20460;-78
2022/02/16 00:04:25;;;;;;;1.83;1.30;;;;;;;3.69;85.37;152311.78;5107323;28;20436;-78
2022/02/16 00:07:01;;;;;;;2.33;1.50;;;;;;;3.68;85.87;152309.19;5101551;28;20452;-78
2022/02/16 00:09:37;;;;;;;2.60;1.40;;;;;;;3.66;86.46;152305.34;5086129;28;20448;-78
2022/02/16 00:12:14;;;;;;;1.83;1.37;;;;;;;3.67;85.43;152307.94;5103662;28;20517;-78
2022/02/16 00:14:49;;;;;;;2.47;1.77;;;;;;;3.67;85.39;152306.66;5088725;28;20441;-78
2022/02/16 00:17:25;;;;;;;1.63;1.30;;;;;;;3.63;86.97;152297.63;5101118;28;20777;-78
2022/02/16 00:20:01;;;;;;;3.70;1.73;;;;;;;3.63;86.40;152297.63;5109373;28;20515;-79
2022/02/16 00:22:36;;;;;;;1.97;1.40;;;;;;;3.56;86.47;152279.63;5102669;28;20565;-78
2022/02/16 00:25:12;;;;;;;1.80;1.37;;;;;;;3.58;86.91;152284.75;5103989;28;20439;-78
2022/02/16 00:27:49;;;;;;;2.10;1.23;;;;;;;3.58;85.26;152284.75;5104615;28;20448;-78
2022/02/16 00:30:24;;;;;;;2.53;1.97;;;;;;;3.58;86.93;152283.47;5088160;28;20441;-79
2022/02/16 00:33:01;;;;;;;2.80;1.30;;;;;;;3.60;87.22;152289.88;5091614;28;20495;-78
2022/02/16 00:35:38;;;;;;;1.90;1.30;;;;;;;3.56;87.95;152279.63;5087855;28;20480;-78
2022/02/16 00:38:13;;;;;;;3.27;1.70;;;;;;;3.63;87.33;152297.63;5085709;28;20484;-78
2022/02/16 00:40:50;;;;;;;1.73;1.30;;;;;;;3.57;87.39;152282.16;5100051;28;20817;-78
2022/02/16 00:43:27;;;;;;;1.27;1.00;;;;;;;3.56;88.31;152279.63;5105208;28;20563;-78
2022/02/16 00:46:03;;;;;;;2.37;1.50;;;;;;;3.55;87.61;152277.03;5102612;28;20447;-78
2022/02/16 00:48:38;;;;;;;2.87;1.40;;;;;;;3.53;88.34;152271.88;5088709;28;20449;-78
2022/02/16 00:51:15;;;;;;;2.53;1.30;;;;;;;3.61;87.27;152292.47;5111030;27;20444;-78
2022/02/16 00:53:51;;;;;;;1.90;1.30;;;;;;;3.65;86.57;152302.75;5107992;28;20444;-79
2022/02/16 00:56:32;;;;;;;1.50;1.17;;;;;;;3.65;87.56;152302.75;5110119;28;20436;-78
2022/02/16 00:59:10;;;;;;;3.20;1.00;;;;;;;3.63;88.21;152297.63;5091107;28;21207;-78
2022/02/16 01:01:47;;;;;;;2.20;1.73;;;;;;;3.70;88.46;152314.38;5094107;28;20472;-78
2022/02/16 01:04:24;;;;;;;1.93;0.90;;;;;;;3.73;88.26;152320.81;5091199;28;20477;-78
2022/02/16 01:07:04;;;;;;;2.10;1.37;;;;;;;3.77;87.66;152332.38;5093171;28;20452;-79
2022/02/16 01:09:40;;;;;;;2.17;1.33;;;;;;;3.80;86.53;152338.81;5086179;28;20448;-79
2022/02/16 01:12:16;;;;;;;7.90;1.77;;;;;;;3.83;86.60;152346.56;5122448;27;20444;-79
2022/02/16 01:14:53;;;;;;;3.40;1.47;;;;;;;3.79;87.76;152337.53;5087632;28;20436;-79
2022/02/16 01:17:31;;;;;;;2.07;1.30;;;;;;;3.77;86.88;152332.38;5105547;28;20456;-78
2022/02/16 01:20:17;;;;;;;2.43;1.60;;;;;;;3.78;86.90;152333.69;5110823;28;20440;-78
2022/02/16 01:22:57;;;;;;;1.97;1.17;;;;;;;3.81;86.53;152342.72;5084278;28;20495;-78
2022/02/16 01:25:32;;;;;;;1.77;1.07;;;;;;;3.83;86.87;152347.84;5091756;28;20436;-78
2022/02/16 01:28:14;;;;;;;1.97;1.50;;;;;;;3.86;86.28;152354.28;5093259;28;20460;-78
2022/02/16 01:30:52;;;;;;;3.03;1.40;;;;;;;3.85;86.29;152351.69;5086615;28;20465;-78
2022/02/16 01:33:50;;;;;;;2.63;1.50;;;;;;;3.87;86.73;152356.81;5107872;28;20444;-78
2022/02/16 01:36:26;;;;;;;1.73;1.53;;;;;;;3.89;86.83;152362.00;5105797;28;20432;-78
2022/02/16 01:39:05;;;;;;;2.60;1.20;;;;;;;3.87;85.05;152356.81;5089590;28;20448;-79
2022/02/16 01:41:52;;;;;;;4.33;1.43;;;;;;;3.82;87.92;152345.25;5094165;28;20559;-79
2022/02/16 01:44:31;;;;;;;6.40;1.77;;;;;;;3.83;88.71;152346.56;5092677;28;20456;-79
2022/02/16 01:47:10;;;;;;;5.17;1.30;;;;;;;3.85;87.09;152351.69;5091952;28;20452;-79
2022/02/16 01:49:47;;;;;;;2.13;1.47;;;;;;;3.83;88.31;152347.84;5091576;28;20919;-79
2022/02/16 01:52:26;;;;;;;2.03;1.43;;;;;;;3.88;86.04;152359.44;5083894;28;20551;-79
2022/02/16 01:55:03;;;;;;;2.17;1.23;;;;;;;3.95;86.79;152377.44;5106962;28;20440;-78
2022/02/16 01:57:43;;;;;;;2.63;1.60;;;;;;;3.97;87.11;152382.63;5090179;28;20444;-79
2022/02/16 02:00:22;;;;;;;3.73;1.30;;;;;;;3.92;86.98;152369.75;5091235;28;20432;-78
2022/02/16 02:03:02;;;;;;;3.07;1.40;;;;;;;3.90;87.65;152364.56;5106468;27;20475;-78
2022/02/16 02:05:44;;;;;;;2.17;1.43;;;;;;;3.86;85.53;152354.28;5089414;28;20963;-78
2022/02/16 02:08:21;;;;;;;1.90;1.40;;;;;;;3.86;86.94;152354.28;5091404;28;20449;-79
2022/02/16 02:10:57;;;;;;;3.30;1.43;;;;;;;3.93;85.27;152373.59;5091202;28;20452;-79
2022/02/16 02:13:34;;;;;;;1.33;1.10;;;;;;;3.97;86.37;152383.88;5091740;28;20559;-78
2022/02/16 02:16:14;;;;;;;1.83;1.30;;;;;;;3.92;87.35;152371.00;5088652;28;20464;-78
2022/02/16 02:18:54;;;;;;;2.20;1.63;;;;;;;3.96;86.35;152381.31;5083745;28;20435;-79
2022/02/16 02:21:34;;;;;;;1.37;1.17;;;;;;;3.94;86.25;152374.88;5091387;28;20464;-79
2022/02/16 02:24:10;;;;;;;2.00;1.10;;;;;;;3.97;87.95;152383.88;5106236;28;20529;-79
2022/02/16 02:26:45;;;;;;;2.23;1.40;;;;;;;3.94;85.24;152374.88;5107228;28;20769;-78
2022/02/16 02:29:21;;;;;;;2.00;1.30;;;;;;;3.97;85.93;152382.63;5107438;28;20448;-79
2022/02/16 02:32:06;;;;;;;5.30;1.33;;;;;;;3.98;84.91;152385.16;5106529;28;20916;-78
2022/02/16 02:34:42;;;;;;;1.33;1.00;;;;;;;3.99;84.91;152389.06;5090865;28;20447;-79
2022/02/16 02:37:19;;;;;;;1.73;1.00;;;;;;;3.99;86.58;152389.06;5084985;28;20448;-78
2022/02/16 02:39:55;;;;;;;2.93;1.33;;;;;;;4.05;86.61;152403.22;5088500;28;20475;-79
2022/02/16 02:42:30;;;;;;;1.90;1.07;;;;;;;4.08;84.77;152410.91;5097476;28;20837;-79
2022/02/16 02:45:08;;;;;;;1.97;1.10;;;;;;;4.06;85.03;152407.06;5107024;28;20435;-78
2022/02/16 02:47:44;;;;;;;2.37;1.20;;;;;;;4.09;87.29;152413.50;5085208;28;20468;-78
2022/02/16 02:50:20;;;;;;;2.17;1.10;;;;;;;4.09;85.74;152413.50;5087536;28;20947;-79
2022/02/16 02:52:57;;;;;;;1.13;0.80;;;;;;;4.12;86.06;152421.25;5092050;28;20448;-79
2022/02/16 02:55:33;;;;;;;1.40;1.00;;;;;;;4.17;87.07;152435.41;5085201;28;20463;-78
2022/02/16 02:58:09;;;;;;;1.37;0.90;;;;;;;4.16;85.80;152432.81;5105814;28;20491;-78
2022/02/16 03:00:49;;;;;;;1.50;1.00;;;;;;;4.20;85.83;152441.84;5107149;28;20432;-79
2022/02/16 03:03:25;;;;;;;1.70;0.83;;;;;;;4.19;86.82;152439.25;5084025;28;20471;-78
2022/02/16 03:06:00;;;;;;;1.30;1.10;;;;;;;4.26;85.50;152457.31;5104838;28;20449;-78
2022/02/16 03:08:37;;;;;;;2.10;1.17;;;;;;;4.22;86.04;152447.00;5083758;28;20464;-78
2022/02/16 03:11:19;;;;;;;1.67;0.80;;;;;;;4.25;85.36;152454.72;5108814;28;20439;-78
2022/02/16 03:13:54;;;;;;;1.60;1.07;;;;;;;4.23;85.45;152449.59;5093233;28;20458;-79
2022/02/16 03:16:35;;;;;;;2.20;1.23;;;;;;;4.26;86.14;152457.31;5084789;28;20449;-79
2022/02/16 03:19:10;;;;;;;2.27;1.23;;;;;;;4.26;85.69;152457.31;5086619;28;20845;-79
2022/02/16 03:21:46;;;;;;;1.60;1.00;;;;;;;4.34;85.83;152477.94;5090479;28;20483;-78
2022/02/16 03:24:23;;;;;;;0.90;0.73;;;;;;;4.31;86.99;152471.44;5090514;28;20449;-79
2022/02/16 03:26:58;;;;;;;1.57;0.80;;;;;;;4.33;86.63;152475.34;5086417;28;20445;-78
2022/02/16 03:30:00;;;;;;;1.57;1.10;;;;;;;4.30;86.98;152468.91;5114834;27;20776;-78
2022/02/16 03:32:42;;;;;;;3.50;1.37;;;;;;;4.32;87.24;152474.03;5105704;28;20436;-79
2022/02/16 03:35:17;;;;;;;1.70;1.00;;;;;;;4.37;85.95;152485.63;5090111;28;20535;-78
2022/02/16 03:37:54;;;;;;;1.80;1.10;;;;;;;4.42;87.23;152497.25;5089451;28;20783;-78
2022/02/16 03:40:31;;;;;;;1.27;0.90;;;;;;;4.38;86.98;152488.22;5089648;28;20452;-79
2022/02/16 03:43:09;;;;;;;1.97;0.80;;;;;;;4.41;86.44;152495.94;5085067;28;20882;-78
2022/02/16 03:45:45;;;;;;;1.40;1.20;;;;;;;4.46;86.80;152507.53;5091997;28;20516;-78
2022/02/16 03:48:20;;;;;;;2.27;1.17;;;;;;;4.45;85.04;152506.22;5081534;28;20448;-79
2022/02/16 03:50:56;;;;;;;2.43;0.80;;;;;;;4.46;84.98;152508.81;5104889;28;20812;-78
2022/02/16 03:53:32;;;;;;;1.90;1.10;;;;;;;4.49;86.57;152516.56;5092845;28;20451;-79
2022/02/16 03:56:10;;;;;;;4.63;1.20;;;;;;;4.55;86.02;152532.03;5090284;28;20526;-78
2022/02/16 03:58:48;;;;;;;1.30;0.50;;;;;;;4.55;86.03;152532.03;5091935;28;20456;-78
2022/02/16 04:01:24;;;;;;;1.20;0.90;;;;;;;4.58;85.19;152539.72;5099900;28;20448;-78
2022/02/16 04:04:00;;;;;;;1.57;0.70;;;;;;;4.61;85.66;152547.47;5091333;28;20444;-79
2022/02/16 04:06:36;;;;;;;1.53;1.03;;;;;;;4.58;85.87;152539.72;5085619;28;20799;-79
2022/02/16 04:09:13;;;;;;;1.83;1.13;;;;;;;4.55;87.88;152530.72;5086420;28;20582;-78
2022/02/16 04:11:50;;;;;;;2.30;1.20;;;;;;;4.57;85.90;152535.88;5089941;28;20783;-78
2022/02/16 04:14:26;;;;;;;1.30;0.73;;;;;;;4.61;85.99;152547.47;5089030;28;21141;-78
2022/02/16 04:17:02;;;;;;;1.53;0.73;;;;;;;4.61;86.06;152547.47;5099065;28;20451;-78
2022/02/16 04:19:38;;;;;;;1.43;1.00;;;;;;;4.63;87.97;152552.59;5090030;28;20439;-79
2022/02/16 04:22:16;;;;;;;0.90;0.70;;;;;;;4.69;87.00;152568.06;5090698;28;20888;-78
2022/02/16 04:24:53;;;;;;;1.40;0.77;;;;;;;4.73;86.95;152577.13;5088624;28;20437;-78
2022/02/16 04:27:30;;;;;;;1.50;1.07;;;;;;;4.71;85.38;152573.22;5093953;28;20498;-79
2022/02/16 04:30:07;;;;;;;1.17;0.90;;;;;;;4.77;87.42;152587.41;5101833;28;20452;-79
2022/02/16 04:32:42;;;;;;;1.00;0.73;;;;;;;4.76;87.92;152586.16;5085390;28;20550;-79
2022/02/16 04:35:18;;;;;;;1.63;1.10;;;;;;;4.74;87.50;152580.97;5092521;28;20440;-78
2022/02/16 04:37:53;;;;;;;0.80;0.57;;;;;;;4.78;86.88;152591.28;5088150;28;20444;-79
2022/02/16 04:40:32;;;;;;;1.20;0.60;;;;;;;4.81;87.02;152599.03;5108966;28;20428;-79
2022/02/16 04:43:10;;;;;;;3.00;0.90;;;;;;;4.85;87.43;152608.03;5092880;28;20908;-79
2022/02/16 04:45:45;;;;;;;0.73;0.40;;;;;;;4.86;87.05;152611.91;5095630;28;20471;-79
2022/02/16 04:48:23;;;;;;;1.10;0.80;;;;;;;4.93;86.39;152629.94;5091662;28;20472;-78
2022/02/16 04:50:59;;;;;;;1.50;1.27;;;;;;;4.91;86.60;152623.50;5092170;28;20961;-78
2022/02/16 04:53:38;;;;;;;1.23;1.00;;;;;;;4.90;86.79;152622.19;5092764;28;20470;-78
2022/02/16 04:56:14;;;;;;;3.80;0.80;;;;;;;4.95;87.38;152632.53;5092827;28;20810;-78
2022/02/16 04:58:51;;;;;;;1.33;0.70;;;;;;;4.99;89.06;152642.81;5094554;28;20844;-79
2022/02/16 05:01:26;;;;;;;1.10;0.60;;;;;;;4.95;87.83;152633.78;5093992;28;20942;-79
2022/02/16 05:04:06;;;;;;;0.90;0.70;;;;;;;4.93;88.50;152629.94;5095587;28;20460;-79
2022/02/16 05:06:42;;;;;;;1.20;0.70;;;;;;;4.96;87.68;152636.38;5100807;28;20487;-78
2022/02/16 05:09:21;;;;;;;2.50;1.00;;;;;;;4.98;87.12;152640.28;5093998;28;20440;-79
2022/02/16 05:11:58;;;;;;;2.20;0.77;;;;;;;4.99;87.43;152642.81;5093035;28;20811;-79
2022/02/16 05:14:35;;;;;;;0.97;0.70;;;;;;;4.99;88.53;152642.81;5100295;28;20451;-79
2022/02/16 05:17:12;;;;;;;1.00;0.70;;;;;;;5.02;87.78;152650.56;5086339;28;20445;-79
2022/02/16 05:19:50;;;;;;;1.57;0.50;;;;;;;4.99;88.94;152642.81;5093984;28;20788;-79
2022/02/16 05:22:25;;;;;;;1.00;0.50;;;;;;;5.04;88.25;152657.00;5093666;28;20464;-78
2022/02/16 05:25:01;;;;;;;0.80;0.50;;;;;;;5.06;87.39;152660.84;5094989;28;20444;-78
2022/02/16 05:27:36;;;;;;;0.90;0.40;;;;;;;5.06;87.43;152662.16;5109658;28;20789;-79
2022/02/16 05:30:14;;;;;;;1.00;0.57;;;;;;;5.07;88.12;152664.75;5105564;28;20451;-79
2022/02/16 05:32:49;;;;;;;1.40;0.70;;;;;;;5.04;90.20;152657.00;5092502;28;20947;-78
2022/02/16 05:35:25;;;;;;;1.03;0.70;;;;;;;5.05;88.95;152659.59;5089559;28;20451;-79
2022/02/16 05:38:00;;;;;;;1.33;0.60;;;;;;;5.05;88.89;152659.59;5100197;28;20931;-78
2022/02/16 05:40:38;;;;;;;3.23;0.70;;;;;;;5.05;89.02;152659.59;5109977;27;20448;-79
2022/02/16 05:43:14;;;;;;;0.80;0.50;;;;;;;5.08;88.48;152666.03;5086324;28;20583;-79
2022/02/16 05:45:51;;;;;;;0.90;0.67;;;;;;;5.12;89.84;152676.31;5092546;28;20436;-79
2022/02/16 05:48:29;;;;;;;0.60;0.40;;;;;;;5.08;88.97;152666.03;5092504;28;20456;-78
2022/02/16 05:51:05;;;;;;;1.67;0.50;;;;;;;5.12;89.62;152676.31;5092432;28;20471;-79
2022/02/16 05:53:42;;;;;;;0.63;0.47;;;;;;;5.08;89.17;152666.03;5092152;28;20444;-78
2022/02/16 05:56:18;;;;;;;1.53;0.70;;;;;;;5.04;90.73;152657.00;5088724;28;20440;-79
2022/02/16 05:58:54;;;;;;;1.57;0.77;;;;;;;5.07;90.34;152664.75;5084811;28;20452;-79
2022/02/16 06:01:30;;;;;;;1.30;0.70;;;;;;;5.01;90.34;152647.97;5093386;28;20450;-79
2022/02/16 06:04:09;;;;;;;0.90;0.63;;;;;;;5.07;90.06;152663.44;5090415;28;20464;-78
2022/02/16 06:06:46;;;;;;;1.43;0.77;;;;;;;5.07;89.72;152663.44;5085229;28;20535;-79
2022/02/16 06:09:22;;;;;;;1.30;0.80;;;;;;;5.07;91.21;152664.75;5087632;27;20794;-79
2022/02/16 06:11:58;;;;;;;1.10;0.60;;;;;;;5.10;89.94;152672.47;5089583;28;21032;-78
2022/02/16 06:14:34;;;;;;;1.37;0.70;;;;;;;5.15;90.32;152684.06;5090566;28;20448;-79
2022/02/16 06:17:18;;;;;;;1.00;0.60;;;;;;;5.14;90.18;152681.47;5091380;28;20485;-78
2022/02/16 06:19:57;;;;;;;1.93;0.77;;;;;;;5.14;90.05;152682.78;5091951;28;20440;-78
2022/02/16 06:22:33;;;;;;;1.13;0.50;;;;;;;5.13;91.10;152678.94;5088066;28;20875;-79
2022/02/16 06:25:12;;;;;;;0.70;0.60;;;;;;;5.12;90.14;152676.31;5086598;28;20425;-79
2022/02/16 06:27:53;;;;;;;1.10;0.80;;;;;;;5.13;90.50;152680.22;5093480;28;20428;-78
2022/02/16 06:30:28;;;;;;;1.20;0.80;;;;;;;5.15;90.27;152684.06;5106812;28;20420;-78
2022/02/16 06:33:07;;;;;;;1.47;0.90;;;;;;;5.15;91.63;152684.06;5087660;28;20454;-79
2022/02/16 06:35:43;;;;;;;0.90;0.60;;;;;;;5.14;91.10;152681.47;5091101;28;20522;-78
2022/02/16 06:38:19;;;;;;;1.57;0.90;;;;;;;5.16;92.48;152686.66;5086262;28;20470;-79
2022/02/16 06:40:56;;;;;;;2.10;1.03;;;;;;;5.15;91.21;152685.38;5092511;27;20936;-79
2022/02/16 06:43:31;;;;;;;1.97;1.60;;;;;;;5.23;90.66;152706.00;5089349;28;20502;-79
2022/02/16 06:46:08;;;;;;;1.63;0.70;;;;;;;5.21;92.77;152699.56;5088576;28;20448;-79
2022/02/16 06:48:46;;;;;;;1.30;0.90;;;;;;;5.31;90.05;152726.63;5102119;27;20452;-78
2022/02/16 06:51:21;;;;;;;1.20;1.00;;;;;;;5.26;90.70;152713.75;5103581;28;20441;-78
2022/02/16 06:53:58;;;;;;;1.20;0.80;;;;;;;5.28;91.21;152717.59;5085495;28;20820;-79
2022/02/16 06:56:34;;;;;;;0.90;0.50;;;;;;;5.30;91.14;152722.72;5091193;28;20495;-78
2022/02/16 06:59:28;;;;;;;1.60;1.20;;;;;;;5.32;90.53;152729.16;5102135;28;20453;-79
2022/02/16 07:02:08;;;;;;;0.87;0.70;;;;;;;5.28;92.73;152717.59;5104210;28;20452;-78
2022/02/16 07:04:45;;;;;;;1.50;0.90;;;;;;;5.30;92.36;152724.03;5088891;28;20444;-79
2022/02/16 07:07:22;;;;;;;1.07;0.80;;;;;;;5.32;92.41;152727.91;5080387;28;20448;-79
2022/02/16 07:09:58;;;;;;;0.83;0.60;;;;;;;5.33;91.75;152730.47;5085655;28;20455;-79
2022/02/16 07:12:34;;;;;;;1.33;0.70;;;;;;;5.30;91.74;152722.72;5082818;28;20468;-79
2022/02/16 07:15:12;;;;;;;0.97;0.60;;;;;;;5.39;91.69;152745.94;5107871;27;20449;-79
2022/02/16 07:17:49;;;;;;;2.30;0.83;;;;;;;5.35;92.39;152735.63;5100347;28;20546;-79
2022/02/16 07:20:26;;;;;;;1.67;0.70;;;;;;;5.32;92.87;152727.91;5090117;28;20452;-79
2022/02/16 07:23:03;;;;;;;1.00;0.80;;;;;;;5.31;93.39;152726.63;5083871;28;20473;-79
2022/02/16 07:25:38;;;;;;;2.77;1.00;;;;;;;5.34;92.18;152733.06;5085450;28;20463;-79
2022/02/16 07:28:14;;;;;;;1.37;0.70;;;;;;;5.35;92.44;152736.91;5086431;28;20955;-78
2022/02/16 07:30:50;;;;;;;0.77;0.53;;;;;;;5.37;92.77;152740.81;5084908;28;20444;-79
2022/02/16 07:33:26;;;;;;;1.17;0.90;;;;;;;5.37;94.11;152742.09;5084870;28;20464;-79
2022/02/16 07:36:05;;;;;;;1.47;0.57;;;;;;;5.38;94.66;152743.34;5099471;28;20815;-79
2022/02/16 07:38:41;;;;;;;0.77;0.50;;;;;;;5.36;95.37;152738.22;5084667;28;20463;-79
2022/02/16 07:41:17;;;;;;;1.30;0.77;;;;;;;5.36;97.00;152738.22;5086404;28;20455;-79
2022/02/16 07:44:09;;;;;;;0.83;0.70;;;;;;;5.27;97.16;152716.28;5099773;28;20991;-79
2022/02/16 07:46:49;;;;;;;1.53;0.70;;;;;;;5.27;97.10;152716.28;5080973;28;20444;-79
2022/02/16 07:49:25;;;;;;;0.90;0.60;;;;;;;5.23;98.82;152704.69;5087836;28;20816;-79
2022/02/16 07:52:21;;;;;;;2.20;0.77;;;;;;;5.28;98.37;152717.59;5098499;28;20451;-78
2022/02/16 07:55:16;;;;;;;0.80;0.60;;;;;;;5.25;99.50;152709.84;5095962;28;20937;-78
2022/02/16 07:57:52;;;;;;;1.33;1.00;;;;;;;5.35;98.84;152735.63;5085096;28;20447;-79
2022/02/16 08:00:27;;;;;;;1.60;1.03;;;;;;;5.22;100.00;152702.09;5089229;28;20527;-79
2022/02/16 08:03:14;;;;;;;1.37;0.90;;;;;;;5.23;100.00;152704.69;5092000;28;20460;-78
2022/02/16 08:06:03;;;;;;;1.43;1.00;;;;;;;5.18;100.00;152691.81;5108512;28;20943;-80
2022/02/16 08:08:40;;;;;;;0.97;0.70;;;;;;;5.19;100.00;152694.41;5088730;28;20477;-78
2022/02/16 08:11:16;;;;;;;1.00;0.80;;;;;;;5.20;100.00;152698.25;5088966;28;20448;-78
2022/02/16 08:13:53;;;;;;;0.90;0.80;;;;;;;5.14;100.00;152682.78;5091538;28;20444;-79
2022/02/16 08:16:34;;;;;;;1.80;0.90;;;;;;;5.13;100.00;152678.94;5093109;28;20443;-79
2022/02/16 08:19:13;;;;;;;1.77;0.90;;;;;;;5.22;100.00;152702.09;5091236;28;20967;-79
2022/02/16 08:21:49;;;;;;;1.07;0.70;;;;;;;5.16;100.00;152686.66;5110379;28;20444;-79
2022/02/16 08:24:27;;;;;;;1.17;0.70;;;;;;;5.14;100.00;152681.47;5086325;28;20455;-79
2022/02/16 08:27:06;;;;;;;1.23;1.13;;;;;;;5.15;100.00;152684.06;5091763;28;20454;-79
2022/02/16 08:29:47;;;;;;;1.17;0.90;;;;;;;5.15;100.00;152685.38;5123924;27;20444;-79
2022/02/16 08:32:34;;;;;;;1.00;0.80;;;;;;;5.14;100.00;152681.47;5093657;28;20458;-78
2022/02/16 08:35:20;;;;;;;1.00;0.60;;;;;;;5.13;100.00;152678.94;5109125;27;20447;-78
2022/02/16 08:37:57;;;;;;;0.90;0.70;;;;;;;5.15;100.00;152684.06;5089922;28;20936;-78
2022/02/16 08:40:34;;;;;;;1.10;0.77;;;;;;;5.16;100.00;152686.66;5090531;28;20436;-78
2022/02/16 08:43:09;;;;;;;0.93;0.60;;;;;;;5.15;100.00;152685.38;5103002;28;20472;-78
2022/02/16 08:45:45;;;;;;;1.20;0.70;;;;;;;5.18;100.00;152693.09;5088113;28;20451;-79
2022/02/16 08:48:23;;;;;;;1.80;0.80;;;;;;;5.20;100.00;152696.94;5086561;28;20463;-79
2022/02/16 08:50:58;;;;;;;1.60;0.87;;;;;;;5.22;100.00;152703.41;5109552;28;20440;-79
2022/02/16 08:53:34;;;;;;;0.90;0.70;;;;;;;5.21;100.00;152700.84;5101765;28;20522;-78
2022/02/16 08:56:11;;;;;;;1.33;1.00;;;;;;;5.21;100.00;152700.84;5103992;28;20431;-79
2022/02/16 08:58:46;;;;;;;2.83;1.10;;;;;;;5.19;100.00;152694.41;5104196;28;20459;-78
2022/02/16 09:01:22;;;;;;;1.73;0.90;;;;;;;5.20;100.00;152696.94;5101525;27;20456;-78
2022/02/16 09:03:58;;;;;;;1.40;1.13;;;;;;;5.21;100.00;152699.56;5082243;28;20812;-78
2022/02/16 09:06:34;;;;;;;1.40;0.90;;;;;;;5.23;100.00;152704.69;5101051;28;20467;-78
2022/02/16 09:09:09;;;;;;;1.97;0.80;;;;;;;5.27;100.00;152715.03;5088737;28;20464;-78
2022/02/16 09:11:46;;;;;;;1.20;1.03;;;;;;;5.27;100.00;152715.03;5088942;28;22289;-78
2022/02/16 09:14:22;;;;;;;1.60;1.03;;;;;;;5.25;100.00;152711.13;5103035;28;20436;-78
2022/02/16 09:16:58;;;;;;;1.87;1.10;;;;;;;5.22;100.00;152703.41;5104203;28;20550;-78
2022/02/16 09:19:34;;;;;;;1.43;0.93;;;;;;;5.26;100.00;152712.44;5106971;28;20958;-78
2022/02/16 09:22:11;;;;;;;1.83;1.10;;;;;;;5.25;100.00;152711.13;5082284;28;20459;-78
2022/02/16 09:24:48;;;;;;;1.10;0.87;;;;;;;5.29;100.00;152720.19;5088566;28;20467;-78
2022/02/16 09:27:25;;;;;;;1.47;0.80;;;;;;;5.30;100.00;152722.72;5082048;28;20452;-78
2022/02/16 09:30:01;;;;;;;1.97;1.00;;;;;;;5.34;100.00;152733.06;5122010;27;20453;-78
2022/02/16 09:32:37;;;;;;;1.47;0.90;;;;;;;5.35;100.00;152735.63;5098226;28;20455;-79
2022/02/16 09:35:13;;;;;;;0.80;0.70;;;;;;;5.38;100.00;152744.66;5101384;28;20449;-79
2022/02/16 09:37:48;;;;;;;1.33;0.80;;;;;;;5.40;100.00;152748.56;5117633;27;20452;-78
2022/02/16 09:40:24;;;;;;;1.50;0.90;;;;;;;5.39;100.00;152745.94;5103657;28;20579;-79
2022/02/16 09:43:02;;;;;;;0.80;0.60;;;;;;;5.46;100.00;152764.00;5091855;28;20521;-79
2022/02/16 09:45:38;;;;;;;1.30;0.70;;;;;;;5.48;100.00;152770.44;5089072;28;20539;-79
2022/02/16 09:48:13;;;;;;;1.20;0.80;;;;;;;5.51;100.00;152776.88;5090240;28;20453;-79
2022/02/16 09:50:50;;;;;;;1.10;0.87;;;;;;;5.54;100.00;152785.91;5103830;28;20447;-79
2022/02/16 09:53:25;;;;;;;1.37;0.70;;;;;;;5.61;100.00;152802.72;5107245;28;20779;-79
2022/02/16 09:56:01;;;;;;;1.10;0.70;;;;;;;5.66;100.00;152815.59;5105589;28;20515;-79
2022/02/16 09:58:38;;;;;;;1.63;0.80;;;;;;;5.65;100.00;152813.00;5109222;28;20448;-79
2022/02/16 10:01:16;;;;;;;0.97;0.70;;;;;;;5.71;100.00;152828.47;5104456;27;20440;-79
2022/02/16 10:04:03;;;;;;;1.10;0.50;;;;;;;5.73;100.00;152833.63;5101635;27;20490;-79
2022/02/16 10:06:40;;;;;;;1.10;0.67;;;;;;;5.79;100.00;152847.81;5100844;28;20940;-79
2022/02/16 10:09:24;;;;;;;0.93;0.53;;;;;;;5.84;100.00;152862.00;5103082;28;20436;-79
2022/02/16 10:12:02;;;;;;;2.20;0.60;;;;;;;5.85;100.00;152863.38;5105615;28;20448;-79
2022/02/16 10:14:40;;;;;;;1.10;0.50;;;;;;;5.89;100.00;152874.97;5103387;28;20452;-79
2022/02/16 10:17:20;;;;;;;0.70;0.50;;;;;;;5.93;100.00;152884.00;5087492;28;20803;-79
2022/02/16 10:19:58;;;;;;;1.20;0.60;;;;;;;6.00;100.00;152902.03;5104336;28;20504;-79
2022/02/16 10:22:41;;;;;;;0.90;0.50;;;;;;;6.10;100.00;152929.13;5106056;28;20452;-79
2022/02/16 10:25:17;;;;;;;0.80;0.50;;;;;;;6.09;100.00;152926.53;5107848;28;20456;-79
2022/02/16 10:28:08;;;;;;;1.03;0.50;;;;;;;6.13;100.00;152936.88;5085747;28;20449;-79
2022/02/16 10:30:58;;;;;;;0.70;0.40;;;;;;;6.17;100.00;152944.63;5105934;28;20444;-79
2022/02/16 10:33:35;;;;;;;1.07;0.57;;;;;;;6.26;100.00;152967.81;5104650;28;20568;-79
2022/02/16 10:36:12;;;;;;;3.03;0.53;;;;;;;6.30;100.00;152978.16;5089738;28;20946;-79
2022/02/16 10:38:54;;;;;;;1.60;0.80;;;;;;;6.33;100.00;152985.91;5087547;28;20460;-79
2022/02/16 10:41:31;;;;;;;1.10;0.57;;;;;;;6.39;100.00;153001.38;5104412;28;20449;-79
2022/02/16 10:44:16;;;;;;;1.23;0.63;;;;;;;6.41;100.00;153007.81;5096570;28;20508;-79
2022/02/16 10:47:02;;;;;;;1.50;0.60;;;;;;;6.48;100.00;153025.91;5089742;28;20961;-79
2022/02/16 10:49:39;;;;;;;0.93;0.50;;;;;;;6.58;100.00;153051.72;5118343;27;20457;-79
2022/02/16 10:52:15;;;;;;;1.23;0.73;;;;;;;6.60;100.00;153056.88;5085269;28;20452;-79
2022/02/16 10:54:52;;;;;;;0.93;0.50;;;;;;;6.66;100.00;153071.06;5102390;28;20794;-80
2022/02/16 10:57:28;;;;;;;2.30;0.70;;;;;;;6.74;100.00;153091.72;5103511;28;20770;-80
2022/02/16 11:00:06;;;;;;;1.13;0.50;;;;;;;6.82;100.00;153112.38;5104561;28;20977;-79
2022/02/16 11:02:47;;;;;;;0.80;0.50;;;;;;;6.94;100.00;153143.34;5104863;28;20456;-80
2022/02/16 11:05:23;;;;;;;1.10;0.63;;;;;;;7.03;100.00;153165.28;5106022;28;20555;-79
2022/02/16 11:08:00;;;;;;;1.10;0.50;;;;;;;7.08;100.00;153178.19;5102050;28;20932;-80
2022/02/16 11:10:35;;;;;;;2.10;0.87;;;;;;;7.16;100.00;153200.16;5100638;28;20864;-79
2022/02/16 11:13:11;;;;;;;0.90;0.50;;;;;;;7.27;100.00;153228.56;5084999;28;20443;-79
2022/02/16 11:15:47;;;;;;;0.70;0.40;;;;;;;7.38;100.00;153254.41;5090536;28;20456;-80
2022/02/16 11:18:26;;;;;;;1.10;0.70;;;;;;;7.38;100.00;153255.69;5104580;28;20795;-79
2022/02/16 11:21:10;;;;;;;1.17;0.47;;;;;;;7.46;100.00;153276.34;5097377;28;20934;-79
2022/02/16 11:23:49;;;;;;;1.50;0.67;;;;;;;7.56;100.00;153300.88;5088968;28;20524;-79
2022/02/16 11:26:35;;;;;;;1.57;0.80;;;;;;;7.66;100.00;153326.72;5088158;28;20449;-79
2022/02/16 11:29:38;;;;;;;1.17;0.60;;;;;;;7.78;100.00;153357.72;5083545;28;20934;-79
2022/02/16 11:32:27;;;;;;;0.83;0.50;;;;;;;7.82;100.00;153368.03;5095585;28;21044;-80
2022/02/16 11:35:23;;;;;;;0.80;0.50;;;;;;;7.87;100.00;153382.25;5104116;28;20468;-79
2022/02/16 11:38:07;;;;;;;1.73;0.80;;;;;;;7.91;100.00;153391.31;5089531;28;20491;-80
2022/02/16 11:40:44;;;;;;;0.77;0.40;;;;;;;7.99;100.00;153412.00;5101948;28;20480;-80
2022/02/16 11:43:22;;;;;;;1.20;0.60;;;;;;;8.04;100.00;153424.91;5103120;28;20564;-79
2022/02/16 11:46:01;;;;;;;1.10;0.60;;;;;;;8.16;100.00;153455.91;5103353;28;20467;-80
2022/02/16 11:48:42;;;;;;;0.90;0.73;;;;;;;8.19;100.00;153462.38;5097310;28;20452;-79
2022/02/16 11:51:42;;;;;;;2.33;0.60;;;;;;;8.33;100.00;153499.91;5084889;28;20460;-79
2022/02/16 11:54:55;;;;;;;0.80;0.60;;;;;;;8.35;100.00;153505.06;5104361;28;20432;-79
2022/02/16 11:57:45;;;;;;;0.90;0.57;;;;;;;8.44;99.75;153528.34;5095499;28;20559;-79
2022/02/16 12:00:26;;;;;;;0.97;0.57;;;;;;;8.50;100.00;153543.84;5102808;28;20555;-79
2022/02/16 12:03:27;;;;;;;1.20;0.50;;;;;;;8.54;100.00;153554.19;5096350;28;20439;-79
2022/02/16 12:06:10;;;;;;;0.80;0.57;;;;;;;8.57;100.00;153560.66;5103529;28;20826;-79
2022/02/16 12:09:06;;;;;;;1.30;0.70;;;;;;;8.63;100.00;153574.88;5102594;28;21415;-79
2022/02/16 12:11:42;;;;;;;1.00;0.60;;;;;;;8.55;100.00;153556.75;5103120;28;20437;-79
2022/02/16 12:14:18;;;;;;;1.40;0.90;;;;;;;8.61;100.00;153569.69;5085696;28;20455;-79
2022/02/16 12:16:54;;;;;;;0.90;0.50;;;;;;;8.61;100.00;153569.69;5097431;28;20476;-79
2022/02/16 12:19:30;;;;;;;0.90;0.50;;;;;;;8.56;100.00;153559.38;5097946;28;20949;-79
2022/02/16 12:22:07;;;;;;;0.90;0.60;;;;;;;8.58;100.00;153564.53;5096948;28;20440;-79
2022/02/16 12:24:44;;;;;;;0.93;0.53;;;;;;;8.60;100.00;153567.13;5087806;28;20986;-79